KSNY

Details ICAO KSNY (SNY)
Name SIDNEY MUNI LLOYD W CARR FLD
Region United States
Timezone America/Denver (UTC-6.0)
Plans Departing 3
Arriving 19
Stats Elevation 4,313 ft / 1,315 m (AMSL)
Location 41.099894° -102.984508°
Runways 2
Magnetic Variation 7.165° E
Sunrise 2018-05-26 11:26:27 UTC / 2018-05-26 05:26:27 Local
Sunset 2018-05-27 02:14:27 UTC / 2018-05-26 20:14:27 Local
Advertisement - Login to hide

Runways

ID Width Length Bearing (true) Bearing (mag) Surface Threshold Offset Overrun Length
02 75 ft / 23 m 3,592 ft / 1,095 m 36.20° 29.04° Unknown 0 ft / 0 m 0 ft / 0 m
12 98 ft / 30 m 6,599 ft / 2,011 m 134.99° 127.83° Concrete 810 ft / 247 m 0 ft / 0 m
20 75 ft / 23 m 3,592 ft / 1,095 m 216.20° 209.04° Unknown 0 ft / 0 m 0 ft / 0 m
30 98 ft / 30 m 6,599 ft / 2,011 m 315.00° 307.84° Concrete 0 ft / 0 m 0 ft / 0 m

Map

Weather


0- 5 10 15 20 25 30 35+ Temperature / ° C

Clouds and Precipitation
Forecast for 2018-05-27 00:00 UTC. Updated 6 hours ago

Ground ~20,000 ft ~40,000 ft Winds

METAR

KSNY 270453Z AUTO 16020G26KT 10SM CLR 24/06 A2981 RMK AO2 PK WND 15030/0411 SLP030 T02390061

TAF

TAF KSNY 262337Z 2700/2724 17012G20KT P6SM SKC FM270300 17020G28KT P6SM BKN150 FM271000 18010KT P6SM BKN150 FM271800 15018G28KT P6SM SCT060

Frequencies

Recorded 118.02 MHz ASOS
Unicom 122.80 MHz CTAF/UNICOM
Warning: Do not use this data for real-world aviation or navigation. No guarantee of current accuracy is given.